createdAt,value
2023-08-09T00:00:37.641Z,13.50
2023-08-09T00:03:06.890Z,13.40
2023-08-09T00:05:34.861Z,13.40
2023-08-09T00:08:04.435Z,13.40
2023-08-09T00:10:32.379Z,13.30
2023-08-09T00:13:05.144Z,13.40
2023-08-09T00:15:34.805Z,13.40
2023-08-09T00:18:03.362Z,13.40
2023-08-09T00:20:31.340Z,13.40
2023-08-09T00:22:59.797Z,13.40
2023-08-09T00:25:29.215Z,13.40
2023-08-09T00:27:59.195Z,13.30
2023-08-09T00:30:28.386Z,13.40
2023-08-09T00:32:56.223Z,13.40
2023-08-09T00:35:24.017Z,13.40
2023-08-09T00:37:52.065Z,13.30
2023-08-09T00:40:20.022Z,13.20
2023-08-09T00:42:47.915Z,13.30
2023-08-09T00:45:15.744Z,13.30
2023-08-09T00:47:46.552Z,13.20
2023-08-09T00:50:14.362Z,13.10
2023-08-09T00:52:42.330Z,13.20
2023-08-09T00:55:10.699Z,13.10
2023-08-09T00:57:38.732Z,13.20
2023-08-09T01:00:08.741Z,13.10
2023-08-09T01:02:38.339Z,13.10
2023-08-09T01:05:08.230Z,13.10
2023-08-09T01:07:40.535Z,13.10
2023-08-09T01:10:16.477Z,13.10
2023-08-09T01:12:48.474Z,13.20
2023-08-09T01:15:20.151Z,13.20
2023-08-09T01:17:52.276Z,13.10
2023-08-09T01:20:23.125Z,13.10
2023-08-09T01:22:58.312Z,13.10
2023-08-09T01:25:27.635Z,13.20
2023-08-09T01:27:55.867Z,13.20
2023-08-09T01:30:24.718Z,13.20
2023-08-09T01:33:43.638Z,13.20
2023-08-09T01:36:16.529Z,13.30
2023-08-09T01:38:51.710Z,13.30
2023-08-09T01:41:21.534Z,13.30
2023-08-09T01:43:49.588Z,13.20
2023-08-09T01:46:17.528Z,13.30
2023-08-09T01:48:45.386Z,13.30
2023-08-09T01:51:34.333Z,13.30
2023-08-09T01:57:27.737Z,13.30
2023-08-09T02:00:22.939Z,13.20
2023-08-09T02:03:08.443Z,13.30
2023-08-09T02:05:53.872Z,13.20
2023-08-09T02:09:10.560Z,13.20
2023-08-09T02:13:01.181Z,13.20
2023-08-09T02:15:33.349Z,13.20
2023-08-09T02:18:34.646Z,13.10
2023-08-09T02:24:03.773Z,13.10
2023-08-09T02:25:35.835Z,13.00
2023-08-09T02:28:23.944Z,12.90
2023-08-09T02:40:05.801Z,13.00
2023-08-09T02:42:34.097Z,13.00
2023-08-09T02:45:01.902Z,13.00
2023-08-09T02:47:31.243Z,13.00
2023-08-09T02:49:59.371Z,13.00
2023-08-09T02:52:27.118Z,13.00
2023-08-09T02:54:55.145Z,13.10
2023-08-09T02:57:22.953Z,13.10
2023-08-09T02:59:51.264Z,13.10
2023-08-09T03:02:19.207Z,13.10
2023-08-09T03:04:48.491Z,13.20
2023-08-09T03:07:18.091Z,13.10
2023-08-09T03:09:45.991Z,13.10
2023-08-09T03:12:13.846Z,13.10
2023-08-09T03:14:41.723Z,13.10
2023-08-09T03:17:09.637Z,13.00
2023-08-09T03:19:37.662Z,13.00
2023-08-09T03:22:07.053Z,13.00
2023-08-09T03:24:34.947Z,13.00
2023-08-09T03:27:03.224Z,13.00
2023-08-09T03:29:31.448Z,13.00
2023-08-09T03:31:59.556Z,12.90
2023-08-09T03:34:27.798Z,12.90
2023-08-09T03:36:55.675Z,12.90
2023-08-09T03:39:25.202Z,12.80
2023-08-09T03:41:53.342Z,12.80
2023-08-09T03:44:21.314Z,12.80
2023-08-09T03:46:49.353Z,12.80
2023-08-09T03:49:17.440Z,12.80
2023-08-09T03:51:45.643Z,12.70
2023-08-09T03:54:13.530Z,12.80
2023-08-09T03:56:42.796Z,12.80
2023-08-09T03:59:10.802Z,12.80
2023-08-09T04:01:38.706Z,12.80
2023-08-09T04:04:09.285Z,12.80
2023-08-09T04:06:37.220Z,12.80
2023-08-09T04:09:05.165Z,12.80
2023-08-09T04:11:33.216Z,12.80
2023-08-09T04:14:02.462Z,12.80
2023-08-09T04:16:30.972Z,12.80
2023-08-09T04:18:58.865Z,12.80
2023-08-09T04:21:26.829Z,12.80
2023-08-09T04:23:54.976Z,12.70
2023-08-09T04:26:22.909Z,12.80
2023-08-09T04:28:50.825Z,12.70
2023-08-09T04:31:20.071Z,12.80
2023-08-09T04:33:50.635Z,12.80
2023-08-09T04:36:19.424Z,12.80
2023-08-09T04:38:47.679Z,12.80
2023-08-09T04:41:17.059Z,12.80
2023-08-09T04:43:46.046Z,12.80
2023-08-09T04:46:14.611Z,12.80
2023-08-09T04:48:44.672Z,12.80
2023-08-09T04:51:13.430Z,12.80
2023-08-09T04:53:41.627Z,12.80
2023-08-09T04:56:09.492Z,12.80
2023-08-09T04:58:38.550Z,12.80
2023-08-09T05:01:06.533Z,12.80
2023-08-09T05:03:34.595Z,12.90
2023-08-09T05:06:04.091Z,13.00
2023-08-09T05:08:32.183Z,13.00
2023-08-09T05:11:00.343Z,13.10
2023-08-09T05:13:28.259Z,13.10
2023-08-09T05:15:56.121Z,13.10
2023-08-09T05:18:23.905Z,13.10
2023-08-09T05:20:51.653Z,13.10
2023-08-09T05:23:20.756Z,13.10
2023-08-09T05:25:48.645Z,13.30
2023-08-09T05:28:16.619Z,13.40
2023-08-09T05:30:44.453Z,13.50
2023-08-09T05:33:12.537Z,13.70
2023-08-09T05:35:40.349Z,13.70
2023-08-09T05:38:08.102Z,13.80
2023-08-09T05:40:37.271Z,13.70
2023-08-09T05:43:05.374Z,13.70
2023-08-09T05:45:33.233Z,13.70
2023-08-09T05:48:00.963Z,13.80
2023-08-09T05:50:28.968Z,13.80
2023-08-09T05:52:56.846Z,13.70
2023-08-09T05:55:24.826Z,13.50
2023-08-09T05:57:54.091Z,13.50
2023-08-09T06:00:22.023Z,13.50
2023-08-09T06:02:50.556Z,13.40
2023-08-09T06:05:22.918Z,13.30
2023-08-09T06:07:50.686Z,13.20
2023-08-09T06:10:18.838Z,13.20
2023-08-09T06:12:46.593Z,13.20
2023-08-09T06:15:15.736Z,13.10
2023-08-09T06:17:43.789Z,13.20
2023-08-09T06:20:14.094Z,13.30
2023-08-09T06:22:41.987Z,13.30
2023-08-09T06:25:10.664Z,13.30
2023-08-09T06:27:38.629Z,13.40
2023-08-09T06:30:08.202Z,13.50
2023-08-09T06:32:37.586Z,13.50
2023-08-09T06:35:06.115Z,13.60
2023-08-09T06:37:33.984Z,13.70
2023-08-09T06:40:01.727Z,13.70
2023-08-09T06:42:29.496Z,13.90
2023-08-09T06:44:57.233Z,14.00
2023-08-09T06:47:25.038Z,14.20
2023-08-09T06:49:54.127Z,14.30
2023-08-09T06:52:21.917Z,14.30
2023-08-09T06:54:53.022Z,14.30
2023-08-09T06:57:21.633Z,14.30
2023-08-09T06:59:50.676Z,14.30
2023-08-09T07:02:18.439Z,14.30
2023-08-09T07:04:46.230Z,14.40
2023-08-09T07:07:15.886Z,14.50
2023-08-09T07:09:43.978Z,14.60
2023-08-09T07:12:11.800Z,14.70
2023-08-09T07:14:39.631Z,14.80
2023-08-09T07:17:08.579Z,14.90
2023-08-09T07:19:36.405Z,15.10
2023-08-09T07:22:04.739Z,15.10
2023-08-09T07:24:34.194Z,15.30
2023-08-09T07:27:02.029Z,15.40
2023-08-09T07:29:29.777Z,15.60
2023-08-09T07:31:57.603Z,15.80
2023-08-09T07:34:25.410Z,15.90
2023-08-09T07:36:53.546Z,16.20
2023-08-09T07:39:21.372Z,16.30
2023-08-09T07:41:50.556Z,16.60
2023-08-09T07:44:18.342Z,16.60
2023-08-09T07:46:46.163Z,16.60
2023-08-09T07:49:13.910Z,16.50
2023-08-09T07:51:42.821Z,16.40
2023-08-09T07:54:10.600Z,16.50
2023-08-09T07:56:38.392Z,16.70
2023-08-09T07:59:07.510Z,16.90
2023-08-09T08:01:35.371Z,17.00
2023-08-09T08:04:03.303Z,17.10
2023-08-09T08:06:31.222Z,17.10
2023-08-09T08:08:59.050Z,17.10
2023-08-09T08:11:26.831Z,17.10
2023-08-09T08:13:54.596Z,17.20
2023-08-09T08:16:23.887Z,17.30
2023-08-09T08:18:51.720Z,17.50
2023-08-09T08:21:19.648Z,17.60
2023-08-09T08:23:47.470Z,17.80
2023-08-09T08:26:16.214Z,17.90
2023-08-09T08:28:44.057Z,18.00
2023-08-09T08:31:13.705Z,17.80
2023-08-09T08:33:46.367Z,17.80
2023-08-09T08:38:49.140Z,19.00
2023-08-09T08:41:16.932Z,19.20
2023-08-09T08:43:45.422Z,18.70
2023-08-09T08:46:16.678Z,18.30
2023-08-09T08:48:49.171Z,18.70
2023-08-09T08:51:19.046Z,20.10
2023-08-09T08:53:47.487Z,20.20
2023-08-09T08:56:16.042Z,19.90
2023-08-09T08:58:43.949Z,19.60
2023-08-09T09:01:12.625Z,20.00
2023-08-09T09:03:40.581Z,21.90
2023-08-09T09:06:11.242Z,24.80
2023-08-09T09:08:42.786Z,26.00
2023-08-09T09:11:16.650Z,26.30
2023-08-09T09:13:44.409Z,25.10
2023-08-09T09:16:12.197Z,26.10
2023-08-09T09:18:43.065Z,27.40
2023-08-09T09:21:12.168Z,25.90
2023-08-09T09:23:40.674Z,24.00
2023-08-09T09:26:10.527Z,22.40
2023-08-09T09:28:40.798Z,23.30
2023-08-09T09:31:08.643Z,26.90
2023-08-09T09:33:37.390Z,26.80
2023-08-09T09:36:06.255Z,25.60
2023-08-09T09:38:35.700Z,27.30
2023-08-09T09:41:03.475Z,26.40
2023-08-09T09:43:34.212Z,24.70
2023-08-09T09:46:02.549Z,23.80
2023-08-09T09:48:30.850Z,26.00
2023-08-09T09:51:03.887Z,27.00
2023-08-09T09:53:34.654Z,25.80
2023-08-09T09:56:03.816Z,24.10
2023-08-09T09:58:32.310Z,23.20
2023-08-09T10:01:02.938Z,23.30
2023-08-09T10:03:40.326Z,25.50
2023-08-09T10:06:24.032Z,27.50
2023-08-09T10:08:53.553Z,26.00
2023-08-09T10:11:25.578Z,24.60
2023-08-09T10:13:55.940Z,24.90
2023-08-09T10:16:27.545Z,26.90
2023-08-09T10:18:59.336Z,29.30
2023-08-09T10:21:27.870Z,30.20
2023-08-09T10:23:57.268Z,29.90
2023-08-09T10:26:31.585Z,29.30
2023-08-09T10:29:08.033Z,27.70
2023-08-09T10:31:50.371Z,26.20
2023-08-09T10:34:18.769Z,26.40
2023-08-09T10:36:51.149Z,24.80
2023-08-09T10:39:20.533Z,22.90
2023-08-09T10:42:03.567Z,22.00
2023-08-09T10:44:43.815Z,21.40
2023-08-09T10:47:13.951Z,22.00
2023-08-09T10:50:01.277Z,24.10
2023-08-09T10:52:34.987Z,27.10
2023-08-09T10:55:27.365Z,29.70
2023-08-09T10:57:59.071Z,31.50
2023-08-09T11:00:29.677Z,32.10
2023-08-09T11:02:59.159Z,31.90
2023-08-09T11:05:29.421Z,29.70
2023-08-09T11:07:58.839Z,27.30
2023-08-09T11:10:37.290Z,26.30
2023-08-09T11:13:08.064Z,26.60
2023-08-09T11:15:36.192Z,27.60
2023-08-09T11:18:04.439Z,28.70
2023-08-09T11:20:32.412Z,29.00
2023-08-09T11:23:01.705Z,29.00
2023-08-09T11:25:31.267Z,28.60
2023-08-09T11:28:00.574Z,28.10
2023-08-09T11:30:32.318Z,26.30
2023-08-09T11:33:01.985Z,23.90
2023-08-09T11:35:34.594Z,22.60
2023-08-09T11:38:02.439Z,21.70
2023-08-09T11:40:34.049Z,21.20
2023-08-09T11:43:05.672Z,20.80
2023-08-09T11:45:44.520Z,20.60
2023-08-09T11:48:24.902Z,20.40
2023-08-09T11:51:04.549Z,20.40
2023-08-09T11:53:34.210Z,20.10
2023-08-09T11:56:02.470Z,19.70
2023-08-09T11:58:30.798Z,19.50
2023-08-09T12:01:00.354Z,19.30
2023-08-09T12:03:28.119Z,19.20
2023-08-09T12:05:56.873Z,19.30
2023-08-09T12:08:35.432Z,19.80
2023-08-09T12:11:03.555Z,20.50
2023-08-09T12:13:31.517Z,21.50
2023-08-09T12:16:02.264Z,22.10
2023-08-09T12:18:30.473Z,22.10
2023-08-09T12:20:58.261Z,21.80
2023-08-09T12:23:26.061Z,21.50
2023-08-09T12:25:53.849Z,21.10
2023-08-09T12:28:21.622Z,20.80
2023-08-09T12:30:49.509Z,20.60
2023-08-09T12:33:18.581Z,20.40
2023-08-09T12:35:46.398Z,20.30
2023-08-09T12:38:14.630Z,20.30
2023-08-09T12:40:42.515Z,20.30
2023-08-09T12:43:10.277Z,20.40
2023-08-09T12:45:38.298Z,20.60
2023-08-09T12:48:07.205Z,20.70
2023-08-09T12:50:36.570Z,20.60
2023-08-09T12:53:08.583Z,20.50
2023-08-09T12:55:37.985Z,20.60
2023-08-09T12:58:06.055Z,20.80
2023-08-09T13:00:33.908Z,21.00
2023-08-09T13:03:01.800Z,20.90
2023-08-09T13:05:30.112Z,21.00
2023-08-09T13:07:59.269Z,21.00
2023-08-09T13:10:27.135Z,20.90
2023-08-09T13:12:54.884Z,20.90
2023-08-09T13:15:22.692Z,20.90
2023-08-09T13:17:50.583Z,20.80
2023-08-09T13:20:18.595Z,20.80
2023-08-09T13:22:47.080Z,20.80
2023-08-09T13:25:16.290Z,20.90
2023-08-09T13:27:44.085Z,20.80
2023-08-09T13:30:12.457Z,20.80
2023-08-09T13:32:40.302Z,20.80
2023-08-09T13:35:10.302Z,20.80
2023-08-09T13:37:41.334Z,20.70
2023-08-09T13:40:11.823Z,20.80
2023-08-09T13:42:40.952Z,20.90
2023-08-09T13:45:09.197Z,20.90
2023-08-09T13:47:38.595Z,20.90
2023-08-09T13:50:07.679Z,21.00
2023-08-09T13:52:35.518Z,21.10
2023-08-09T13:55:04.317Z,21.10
2023-08-09T13:57:32.096Z,20.90
2023-08-09T14:00:02.407Z,20.70
2023-08-09T14:02:30.232Z,20.30
2023-08-09T14:04:58.877Z,19.60
2023-08-09T14:07:26.638Z,19.10
2023-08-09T14:09:54.409Z,18.70
2023-08-09T14:12:22.196Z,18.20
2023-08-09T14:14:49.969Z,17.90
2023-08-09T14:17:19.125Z,17.20
2023-08-09T14:19:46.931Z,16.60
2023-08-09T14:22:15.213Z,16.00
2023-08-09T14:24:42.978Z,15.50
2023-08-09T14:27:11.155Z,15.40
2023-08-09T14:29:43.521Z,15.30
2023-08-09T14:32:12.234Z,15.20
2023-08-09T14:34:41.805Z,15.20
2023-08-09T14:37:09.713Z,15.20
2023-08-09T14:39:38.220Z,15.20
2023-08-09T14:42:06.906Z,15.30
2023-08-09T14:44:38.373Z,15.50
2023-08-09T14:47:07.113Z,15.50
2023-08-09T14:49:35.166Z,15.60
2023-08-09T14:52:04.382Z,15.70
2023-08-09T14:54:38.190Z,15.90
2023-08-09T14:57:06.964Z,16.10
2023-08-09T14:59:34.736Z,16.30
2023-08-09T15:02:02.749Z,16.60
2023-08-09T15:04:31.745Z,16.80
2023-08-09T15:06:59.555Z,16.80
2023-08-09T15:09:29.990Z,17.00
2023-08-09T15:11:57.964Z,17.10
2023-08-09T15:14:25.888Z,17.20
2023-08-09T15:16:54.512Z,17.10
2023-08-09T15:19:23.385Z,17.10
2023-08-09T15:21:51.209Z,17.00
2023-08-09T15:24:18.985Z,16.90
2023-08-09T15:26:48.107Z,16.80
2023-08-09T15:29:15.932Z,16.80
2023-08-09T15:31:43.716Z,16.90
2023-08-09T15:34:11.523Z,17.00
2023-08-09T15:36:39.274Z,17.00
2023-08-09T15:39:07.998Z,17.10
2023-08-09T15:41:35.783Z,17.10
2023-08-09T15:44:05.204Z,17.10
2023-08-09T15:46:33.057Z,17.20
2023-08-09T15:49:01.601Z,17.30
2023-08-09T15:51:29.478Z,17.50
2023-08-09T15:53:57.239Z,17.60
2023-08-09T15:56:25.316Z,17.60
2023-08-09T15:58:53.044Z,17.70
2023-08-09T16:01:22.394Z,17.70
2023-08-09T16:03:50.578Z,17.60
2023-08-09T16:06:18.451Z,17.50
2023-08-09T16:08:46.971Z,17.40
2023-08-09T16:11:15.064Z,17.50
2023-08-09T16:13:42.821Z,17.50
2023-08-09T16:16:20.299Z,17.50
2023-08-09T16:18:57.658Z,17.50
2023-08-09T16:21:25.528Z,17.40
2023-08-09T16:23:53.313Z,17.40
2023-08-09T16:26:21.110Z,17.40
2023-08-09T16:28:48.963Z,17.30
2023-08-09T16:31:16.857Z,17.30
2023-08-09T16:33:44.898Z,17.10
2023-08-09T16:36:13.997Z,17.00
2023-08-09T16:38:41.784Z,16.90
2023-08-09T16:41:09.550Z,16.80
2023-08-09T16:43:38.594Z,16.90
2023-08-09T16:46:06.869Z,16.90
2023-08-09T16:48:34.966Z,17.10
2023-08-09T16:51:02.805Z,17.30
2023-08-09T16:53:31.923Z,17.40
2023-08-09T16:55:59.663Z,17.40
2023-08-09T16:58:27.434Z,17.40
2023-08-09T17:00:55.416Z,17.60
2023-08-09T17:03:23.207Z,17.60
2023-08-09T17:05:50.980Z,17.70
2023-08-09T17:08:18.761Z,17.60
2023-08-09T17:10:47.864Z,17.50
2023-08-09T17:13:15.699Z,17.50
2023-08-09T17:15:44.088Z,17.40
2023-08-09T17:18:11.984Z,17.20
2023-08-09T17:20:39.964Z,17.20
2023-08-09T17:23:07.721Z,17.20
2023-08-09T17:25:35.496Z,17.20
2023-08-09T17:28:05.043Z,17.30
2023-08-09T17:30:33.011Z,17.30
2023-08-09T17:33:01.039Z,17.30
2023-08-09T17:35:28.929Z,17.30
2023-08-09T17:37:56.764Z,17.30
2023-08-09T17:40:24.889Z,17.30
2023-08-09T17:42:52.898Z,17.30
2023-08-09T17:45:22.194Z,17.10
2023-08-09T17:47:50.060Z,17.10
2023-08-09T17:50:18.045Z,17.00
2023-08-09T17:52:45.843Z,17.00
2023-08-09T17:55:13.884Z,16.80
2023-08-09T17:57:45.089Z,16.80
2023-08-09T18:00:17.257Z,16.70
2023-08-09T18:02:46.412Z,16.70
2023-08-09T18:05:15.331Z,16.70
2023-08-09T18:07:43.668Z,16.70
2023-08-09T18:10:13.662Z,16.70
2023-08-09T18:12:42.538Z,16.70
2023-08-09T18:15:11.405Z,16.60
2023-08-09T18:17:40.154Z,16.50
2023-08-09T18:20:12.966Z,16.60
2023-08-09T18:22:41.715Z,16.40
2023-08-09T18:25:10.062Z,16.20
2023-08-09T18:27:37.865Z,16.00
2023-08-09T18:30:06.784Z,16.10
2023-08-09T18:32:35.197Z,16.10
2023-08-09T18:35:16.400Z,16.10
2023-08-09T18:37:46.944Z,16.20
2023-08-09T18:40:16.586Z,16.00
2023-08-09T18:42:46.461Z,15.90
2023-08-09T18:45:14.739Z,15.80
2023-08-09T18:47:42.622Z,15.60
2023-08-09T18:50:12.056Z,15.60
2023-08-09T18:52:40.999Z,15.70
2023-08-09T18:55:12.361Z,15.70
2023-08-09T18:57:40.575Z,15.70
2023-08-09T19:00:13.286Z,15.40
2023-08-09T19:02:44.404Z,15.40
2023-08-09T19:05:12.517Z,15.20
2023-08-09T19:07:40.398Z,15.20
2023-08-09T19:10:11.814Z,15.40
2023-08-09T19:12:40.087Z,15.50
2023-08-09T19:15:09.488Z,15.40
2023-08-09T19:17:37.584Z,15.40
2023-08-09T19:20:06.248Z,15.40
2023-08-09T19:22:35.053Z,15.40
2023-08-09T19:25:03.221Z,15.40
2023-08-09T19:27:32.483Z,15.30
2023-08-09T19:30:01.504Z,15.30
2023-08-09T19:32:29.545Z,15.10
2023-08-09T19:34:57.337Z,14.90
2023-08-09T19:37:25.614Z,14.90
2023-08-09T19:39:53.461Z,14.70
2023-08-09T19:42:21.276Z,14.60
2023-08-09T19:44:50.358Z,14.60
2023-08-09T19:47:18.098Z,14.50
2023-08-09T19:49:46.470Z,14.50
2023-08-09T19:52:14.800Z,14.50
2023-08-09T19:54:42.619Z,14.20
2023-08-09T19:57:10.380Z,14.00
2023-08-09T19:59:38.267Z,13.80
2023-08-09T20:02:08.214Z,13.60
2023-08-09T20:04:38.981Z,13.50
2023-08-09T20:07:07.386Z,13.40
2023-08-09T20:09:36.016Z,13.40
2023-08-09T20:12:04.827Z,13.60
2023-08-09T20:14:32.908Z,13.50
2023-08-09T20:17:00.692Z,13.40
2023-08-09T20:19:30.077Z,13.30
2023-08-09T20:21:57.866Z,13.20
2023-08-09T20:24:40.366Z,13.20
2023-08-09T20:27:08.811Z,13.00
2023-08-09T20:29:36.687Z,13.10
2023-08-09T20:32:05.264Z,13.00
2023-08-09T20:34:35.295Z,13.10
2023-08-09T20:37:04.360Z,13.20
2023-08-09T20:39:33.646Z,13.20
2023-08-09T20:42:01.652Z,13.20
2023-08-09T20:44:31.020Z,13.10
2023-08-09T20:46:58.831Z,13.00
2023-08-09T20:49:26.580Z,12.90
2023-08-09T20:51:55.928Z,12.80
2023-08-09T20:54:23.739Z,12.90
2023-08-09T20:56:51.517Z,13.00
2023-08-09T20:59:20.469Z,13.00
2023-08-09T21:01:48.358Z,13.00
2023-08-09T21:04:16.210Z,13.00
2023-08-09T21:06:43.980Z,13.00
2023-08-09T21:09:13.063Z,12.90
2023-08-09T21:11:40.893Z,12.80
2023-08-09T21:14:08.766Z,12.80
2023-08-09T21:16:36.675Z,12.70
2023-08-09T21:19:04.549Z,12.80
2023-08-09T21:21:32.318Z,12.90
2023-08-09T21:26:32.083Z,12.80
2023-08-09T21:29:00.211Z,12.80
2023-08-09T21:31:27.989Z,12.60
2023-08-09T21:33:55.759Z,12.40
2023-08-09T21:36:23.817Z,12.40
2023-08-09T21:38:51.715Z,12.30
2023-08-09T21:41:19.985Z,12.20
2023-08-09T21:43:49.106Z,12.10
2023-08-09T21:46:16.894Z,12.10
2023-08-09T21:48:44.730Z,12.00
2023-08-09T21:51:12.495Z,12.00
2023-08-09T21:53:40.254Z,12.00
2023-08-09T21:56:08.009Z,12.10
2023-08-09T21:58:35.760Z,12.20
2023-08-09T22:01:05.039Z,12.30
2023-08-09T22:03:33.029Z,12.30
2023-08-09T22:06:00.791Z,12.10
2023-08-09T22:08:28.604Z,12.00
2023-08-09T22:10:56.679Z,12.10
2023-08-09T22:13:24.561Z,12.10
2023-08-09T22:15:52.913Z,12.10
2023-08-09T22:18:22.248Z,12.10
2023-08-09T22:20:50.127Z,12.00
2023-08-09T22:23:17.891Z,11.90
2023-08-09T22:25:45.694Z,11.80
2023-08-09T22:28:13.954Z,11.70
2023-08-09T22:30:43.019Z,11.60
2023-08-09T22:33:11.413Z,11.60
2023-08-09T22:35:40.739Z,11.50
2023-08-09T22:38:08.555Z,11.60
2023-08-09T22:40:38.251Z,11.50
2023-08-09T22:43:07.389Z,11.50
2023-08-09T22:45:36.848Z,11.40
2023-08-09T22:48:05.612Z,11.30
2023-08-09T22:50:33.698Z,11.30
2023-08-09T22:53:05.012Z,11.50
2023-08-09T22:55:34.176Z,11.50
2023-08-09T22:58:02.091Z,11.50
2023-08-09T23:00:29.839Z,11.50
2023-08-09T23:02:57.732Z,11.40
2023-08-09T23:05:25.891Z,11.30
2023-08-09T23:07:53.831Z,11.30
2023-08-09T23:10:22.960Z,11.30
2023-08-09T23:12:50.705Z,11.50
2023-08-09T23:15:18.490Z,11.50
2023-08-09T23:17:46.309Z,11.50
2023-08-09T23:20:14.712Z,11.50
2023-08-09T23:22:42.873Z,11.40
2023-08-09T23:25:11.022Z,11.30
2023-08-09T23:27:40.439Z,11.30
2023-08-09T23:30:09.819Z,11.10
2023-08-09T23:32:38.293Z,11.00
2023-08-09T23:35:07.082Z,11.00
2023-08-09T23:37:35.109Z,11.00
2023-08-09T23:40:03.429Z,10.90
2023-08-09T23:42:31.934Z,11.00
2023-08-09T23:45:01.004Z,11.00
2023-08-09T23:47:28.817Z,11.10
2023-08-09T23:49:56.759Z,11.20
2023-08-09T23:52:24.517Z,11.20
2023-08-09T23:54:52.458Z,11.20
2023-08-09T23:57:20.237Z,11.00
2023-08-09T23:59:48.852Z,11.00
